White Point — IBAE — position and weather

sailwx.info

Track history (hours):
 
Tides and Currents Weather Stations Pressure Air Temp Water Temp Dewpoint Dewpoint Depression Visibility Wind Speed Wind Dir Waves Ship Positions

White Point

Last reported at 2016-May-02 08:34 UTC. Time now 2016-May-02 10:36 UTC.
Position N 43°08' E 009°14'.

Length 183 m; draft 1.1 m.

Type: Ship (hazmat cat D). MMSI: 247087400.

Date/timePositionNaut miles runAvg speedWind from/ knotsBaromVisibWave heightAir tempDewpointWater temp
2016-May-02 08:34N 43°08' E 009°14'1311.0
2016-May-02 07:25N 43°08' E 009°32'298 8.7
2016-Apr-30 21:18N 38°39' E 012°22'1013.5
2016-Apr-30 20:32N 38°38' E 012°35'1313.5
2016-Apr-30 19:33N 38°35' E 012°52'1413.8
2016-Apr-30 18:33N 38°33' E 013°09'1413.6
2016-Apr-30 17:33N 38°31' E 013°26'1413.9
2016-Apr-30 16:33N 38°29' E 013°44'2813.8
2016-Apr-30 14:32N 38°25' E 014°19'1313.3
2016-Apr-30 13:32N 38°23' E 014°36'1313.6
2016-Apr-30 12:33N 38°20' E 014°52'1313.4
2016-Apr-30 11:33N 38°19' E 015°09'8 3.3
2016-Apr-30 09:05N 38°13' E 015°16'0 0.0
2016-Apr-30 08:29N 38°13' E 015°16'0 0.0
2016-Apr-30 07:29N 38°13' E 015°16'0 0.0
2016-Apr-30 06:29N 38°13' E 015°16'0 0.0
2016-Apr-30 05:30N 38°13' E 015°16'0 0.0
2016-Apr-30 04:29N 38°13' E 015°16'0 0.0
2016-Apr-30 03:30N 38°13' E 015°16'0 0.0
2016-Apr-30 02:30N 38°13' E 015°16'0 0.0
2016-Apr-30 01:29N 38°13' E 015°16'0 0.0
2016-Apr-30 00:29N 38°13' E 015°16'0 0.0
2016-Apr-29 23:29N 38°13' E 015°16'0 0.0
2016-Apr-29 22:29N 38°13' E 015°16'0 0.0
2016-Apr-29 21:29N 38°13' E 015°16'0 0.0
2016-Apr-29 20:29N 38°13' E 015°16'0 0.0
2016-Apr-29 19:29N 38°13' E 015°16'0 0.0
2016-Apr-29 18:30N 38°13' E 015°16'0 0.0
2016-Apr-29 17:29N 38°13' E 015°16'0 0.0
2016-Apr-29 16:29N 38°13' E 015°16'3 3.6
2016-Apr-29 15:33N 38°16' E 015°17'1313.3
2016-Apr-29 14:33N 38°19' E 015°00'1514.9
2016-Apr-29 13:32N 38°21' E 014°41'1815.0
2016-Apr-29 12:20N 38°23' E 014°18'1614.8
2016-Apr-29 11:15N 38°24' E 013°58'1114.5
2016-Apr-29 10:31N 38°25' E 013°44'1414.4
2016-Apr-29 09:34N 38°26' E 013°27'1514.8
2016-Apr-29 08:34N 38°27' E 013°08'1514.5
2016-Apr-29 07:33N 38°28' E 012°49'14814.7
2016-Apr-28 21:29N 38°41' E 009°41'1413.9
2016-Apr-28 20:29N 38°42' E 009°23'2714.0
2016-Apr-28 18:33N 38°44' E 008°49'3012.9
2016-Apr-28 16:12N 38°57' E 008°13'2814.2
2016-Apr-28 14:12N 39°24' E 008°04'  
2016-Apr-25 11:14N 43°11' E 009°27'710.6
2016-Apr-25 10:33N 43°08' E 009°35'311 8.2
2016-Apr-23 20:33N 38°35' E 012°53'1313.2
2016-Apr-23 19:34N 38°33' E 013°09'1313.3
2016-Apr-23 18:33N 38°30' E 013°26'1313.2
2016-Apr-23 17:33N 38°28' E 013°43'4112.8
2016-Apr-23 14:23N 38°23' E 014°34'1113.2
2016-Apr-23 13:33N 38°21' E 014°48'1313.4
2016-Apr-23 12:33N 38°19' E 015°05'1110.6
2016-Apr-23 11:33N 38°14' E 015°17'1 1.4
2016-Apr-23 10:33N 38°13' E 015°16'0 0.0
2016-Apr-23 09:33N 38°13' E 015°16'0 0.0
2016-Apr-23 08:33N 38°13' E 015°16'0 0.0
2016-Apr-23 07:33N 38°13' E 015°16'0 0.0
2016-Apr-23 06:33N 38°13' E 015°16'0 0.0
2016-Apr-23 05:33N 38°13' E 015°16'0 0.0
2016-Apr-23 04:33N 38°13' E 015°16'0 0.0
2016-Apr-23 03:33N 38°13' E 015°16'0 0.0
2016-Apr-23 02:33N 38°13' E 015°16'0 0.0
2016-Apr-23 01:33N 38°13' E 015°16'0 0.0
2016-Apr-23 00:33N 38°13' E 015°16'0 0.0
2016-Apr-22 23:33N 38°13' E 015°16'0 0.0
2016-Apr-22 22:33N 38°13' E 015°16'0 0.0
2016-Apr-22 21:33N 38°13' E 015°16'0 0.0
2016-Apr-22 20:33N 38°13' E 015°16'0 0.0
2016-Apr-22 19:33N 38°13' E 015°16'0 0.0
2016-Apr-22 18:33N 38°13' E 015°16'0 0.0
2016-Apr-22 17:33N 38°13' E 015°16'0 0.0
2016-Apr-22 16:33N 38°13' E 015°16'0 0.0
2016-Apr-22 15:33N 38°13' E 015°16'0 0.0
2016-Apr-22 14:33N 38°13' E 015°16'0 0.1
2016-Apr-22 13:33N 38°13' E 015°16'3 3.3
2016-Apr-22 12:32N 38°14' E 015°20'0 0.0
2016-Apr-22 11:32N 38°14' E 015°20'0 0.0
2016-Apr-22 10:32N 38°14' E 015°20'0 0.0
2016-Apr-22 09:32N 38°14' E 015°20'  
Track history (hours):
 
Tides and Currents Weather Stations Pressure Air Temp Water Temp Dewpoint Dewpoint Depression Visibility Wind Speed Wind Dir Waves Ship Positions

White Point

Last reported at 2016-May-02 08:34 UTC. Time now 2016-May-02 10:36 UTC.
Position N 43°08' E 009°14'.

Length 183 m; draft 1.1 m.

Type: Ship (hazmat cat D). MMSI: 247087400.

Date/timePositionNaut miles runAvg speedWind from/ knotsBaromVisibWave heightAir tempDewpointWater temp
2016-May-02 08:34N 43°08' E 009°14'1311.0
2016-May-02 07:25N 43°08' E 009°32'298 8.7
2016-Apr-30 21:18N 38°39' E 012°22'1013.5
2016-Apr-30 20:32N 38°38' E 012°35'1313.5
2016-Apr-30 19:33N 38°35' E 012°52'1413.8
2016-Apr-30 18:33N 38°33' E 013°09'1413.6
2016-Apr-30 17:33N 38°31' E 013°26'1413.9
2016-Apr-30 16:33N 38°29' E 013°44'2813.8
2016-Apr-30 14:32N 38°25' E 014°19'1313.3
2016-Apr-30 13:32N 38°23' E 014°36'1313.6
2016-Apr-30 12:33N 38°20' E 014°52'1313.4
2016-Apr-30 11:33N 38°19' E 015°09'8 3.3
2016-Apr-30 09:05N 38°13' E 015°16'0 0.0
2016-Apr-30 08:29N 38°13' E 015°16'0 0.0
2016-Apr-30 07:29N 38°13' E 015°16'0 0.0
2016-Apr-30 06:29N 38°13' E 015°16'0 0.0
2016-Apr-30 05:30N 38°13' E 015°16'0 0.0
2016-Apr-30 04:29N 38°13' E 015°16'0 0.0
2016-Apr-30 03:30N 38°13' E 015°16'0 0.0
2016-Apr-30 02:30N 38°13' E 015°16'0 0.0
2016-Apr-30 01:29N 38°13' E 015°16'0 0.0
2016-Apr-30 00:29N 38°13' E 015°16'0 0.0
2016-Apr-29 23:29N 38°13' E 015°16'0 0.0
2016-Apr-29 22:29N 38°13' E 015°16'0 0.0
2016-Apr-29 21:29N 38°13' E 015°16'0 0.0
2016-Apr-29 20:29N 38°13' E 015°16'0 0.0
2016-Apr-29 19:29N 38°13' E 015°16'0 0.0
2016-Apr-29 18:30N 38°13' E 015°16'0 0.0
2016-Apr-29 17:29N 38°13' E 015°16'0 0.0
2016-Apr-29 16:29N 38°13' E 015°16'3 3.6
2016-Apr-29 15:33N 38°16' E 015°17'1313.3
2016-Apr-29 14:33N 38°19' E 015°00'1514.9
2016-Apr-29 13:32N 38°21' E 014°41'1815.0
2016-Apr-29 12:20N 38°23' E 014°18'1614.8
2016-Apr-29 11:15N 38°24' E 013°58'1114.5
2016-Apr-29 10:31N 38°25' E 013°44'1414.4
2016-Apr-29 09:34N 38°26' E 013°27'1514.8
2016-Apr-29 08:34N 38°27' E 013°08'1514.5
2016-Apr-29 07:33N 38°28' E 012°49'14814.7
2016-Apr-28 21:29N 38°41' E 009°41'1413.9
2016-Apr-28 20:29N 38°42' E 009°23'2714.0
2016-Apr-28 18:33N 38°44' E 008°49'3012.9
2016-Apr-28 16:12N 38°57' E 008°13'2814.2
2016-Apr-28 14:12N 39°24' E 008°04'  
2016-Apr-25 11:14N 43°11' E 009°27'710.6
2016-Apr-25 10:33N 43°08' E 009°35'311 8.2
2016-Apr-23 20:33N 38°35' E 012°53'1313.2
2016-Apr-23 19:34N 38°33' E 013°09'1313.3
2016-Apr-23 18:33N 38°30' E 013°26'1313.2
2016-Apr-23 17:33N 38°28' E 013°43'4112.8
2016-Apr-23 14:23N 38°23' E 014°34'1113.2
2016-Apr-23 13:33N 38°21' E 014°48'1313.4
2016-Apr-23 12:33N 38°19' E 015°05'1110.6
2016-Apr-23 11:33N 38°14' E 015°17'1 1.4
2016-Apr-23 10:33N 38°13' E 015°16'0 0.0
2016-Apr-23 09:33N 38°13' E 015°16'0 0.0
2016-Apr-23 08:33N 38°13' E 015°16'0 0.0
2016-Apr-23 07:33N 38°13' E 015°16'0 0.0
2016-Apr-23 06:33N 38°13' E 015°16'0 0.0
2016-Apr-23 05:33N 38°13' E 015°16'0 0.0
2016-Apr-23 04:33N 38°13' E 015°16'0 0.0
2016-Apr-23 03:33N 38°13' E 015°16'0 0.0
2016-Apr-23 02:33N 38°13' E 015°16'0 0.0
2016-Apr-23 01:33N 38°13' E 015°16'0 0.0
2016-Apr-23 00:33N 38°13' E 015°16'0 0.0
2016-Apr-22 23:33N 38°13' E 015°16'0 0.0
2016-Apr-22 22:33N 38°13' E 015°16'0 0.0
2016-Apr-22 21:33N 38°13' E 015°16'0 0.0
2016-Apr-22 20:33N 38°13' E 015°16'0 0.0
2016-Apr-22 19:33N 38°13' E 015°16'0 0.0
2016-Apr-22 18:33N 38°13' E 015°16'0 0.0
2016-Apr-22 17:33N 38°13' E 015°16'0 0.0
2016-Apr-22 16:33N 38°13' E 015°16'0 0.0
2016-Apr-22 15:33N 38°13' E 015°16'0 0.0
2016-Apr-22 14:33N 38°13' E 015°16'0 0.1
2016-Apr-22 13:33N 38°13' E 015°16'3 3.3
2016-Apr-22 12:32N 38°14' E 015°20'0 0.0
2016-Apr-22 11:32N 38°14' E 015°20'0 0.0
2016-Apr-22 10:32N 38°14' E 015°20'0 0.0
2016-Apr-22 09:32N 38°14' E 015°20'  

Dump ship's entire track history